sensor_id;sensor_type;location;lat;lon;timestamp;temperature;humidity
41904;DHT22;27586;51.124;4.182;2022-08-16T00:00:29;20.70;99.90
41904;DHT22;27586;51.124;4.182;2022-08-16T00:02:58;20.60;99.90
41904;DHT22;27586;51.124;4.182;2022-08-16T00:05:26;20.60;99.90
41904;DHT22;27586;51.124;4.182;2022-08-16T00:07:52;20.60;99.90
41904;DHT22;27586;51.124;4.182;2022-08-16T00:10:20;20.60;99.90
41904;DHT22;27586;51.124;4.182;2022-08-16T00:12:46;20.50;99.90
41904;DHT22;27586;51.124;4.182;2022-08-16T00:15:23;20.50;99.90
41904;DHT22;27586;51.124;4.182;2022-08-16T00:17:50;20.40;99.90
41904;DHT22;27586;51.124;4.182;2022-08-16T00:20:17;20.50;99.90
41904;DHT22;27586;51.124;4.182;2022-08-16T00:22:43;20.50;99.90
41904;DHT22;27586;51.124;4.182;2022-08-16T00:25:13;20.50;99.90
41904;DHT22;27586;51.124;4.182;2022-08-16T00:27:39;20.40;99.90
41904;DHT22;27586;51.124;4.182;2022-08-16T00:30:08;20.40;99.90
41904;DHT22;27586;51.124;4.182;2022-08-16T00:32:38;20.40;99.90
41904;DHT22;27586;51.124;4.182;2022-08-16T00:35:07;20.40;99.90
41904;DHT22;27586;51.124;4.182;2022-08-16T00:37:33;20.40;99.90
41904;DHT22;27586;51.124;4.182;2022-08-16T00:39:59;20.40;99.90
41904;DHT22;27586;51.124;4.182;2022-08-16T00:42:29;20.40;99.90
41904;DHT22;27586;51.124;4.182;2022-08-16T00:44:59;20.40;99.90
41904;DHT22;27586;51.124;4.182;2022-08-16T00:47:26;20.30;99.90
41904;DHT22;27586;51.124;4.182;2022-08-16T00:49:52;20.30;99.90
41904;DHT22;27586;51.124;4.182;2022-08-16T00:52:18;20.30;99.90
41904;DHT22;27586;51.124;4.182;2022-08-16T00:54:44;20.30;99.90
41904;DHT22;27586;51.124;4.182;2022-08-16T00:57:10;20.30;99.90
41904;DHT22;27586;51.124;4.182;2022-08-16T00:59:37;20.30;99.90
41904;DHT22;27586;51.124;4.182;2022-08-16T01:02:07;20.30;99.90
41904;DHT22;27586;51.124;4.182;2022-08-16T01:04:33;20.30;99.90
41904;DHT22;27586;51.124;4.182;2022-08-16T01:07:01;20.30;99.90
41904;DHT22;27586;51.124;4.182;2022-08-16T01:09:32;20.30;99.90
41904;DHT22;27586;51.124;4.182;2022-08-16T01:11:58;20.30;99.90
41904;DHT22;27586;51.124;4.182;2022-08-16T01:14:34;20.30;99.90
41904;DHT22;27586;51.124;4.182;2022-08-16T01:17:02;20.30;99.90
41904;DHT22;27586;51.124;4.182;2022-08-16T01:19:37;20.30;99.90
41904;DHT22;27586;51.124;4.182;2022-08-16T01:24:59;20.40;99.90
41904;DHT22;27586;51.124;4.182;2022-08-16T01:27:32;20.50;99.90
41904;DHT22;27586;51.124;4.182;2022-08-16T01:33:00;20.50;99.90
41904;DHT22;27586;51.124;4.182;2022-08-16T01:37:56;20.50;99.90
41904;DHT22;27586;51.124;4.182;2022-08-16T01:40:28;20.40;99.90
41904;DHT22;27586;51.124;4.182;2022-08-16T01:42:55;20.40;99.90
41904;DHT22;27586;51.124;4.182;2022-08-16T01:45:22;20.40;99.90
41904;DHT22;27586;51.124;4.182;2022-08-16T01:47:49;20.40;99.90
41904;DHT22;27586;51.124;4.182;2022-08-16T01:50:16;20.40;99.90
41904;DHT22;27586;51.124;4.182;2022-08-16T01:52:43;20.30;99.90
41904;DHT22;27586;51.124;4.182;2022-08-16T01:55:09;20.20;99.90
41904;DHT22;27586;51.124;4.182;2022-08-16T01:57:35;20.00;99.90
41904;DHT22;27586;51.124;4.182;2022-08-16T02:00:03;19.90;99.90
41904;DHT22;27586;51.124;4.182;2022-08-16T02:02:29;19.90;99.90
41904;DHT22;27586;51.124;4.182;2022-08-16T02:04:56;19.80;99.90
41904;DHT22;27586;51.124;4.182;2022-08-16T02:07:24;19.70;99.90
41904;DHT22;27586;51.124;4.182;2022-08-16T02:09:50;19.70;99.90
41904;DHT22;27586;51.124;4.182;2022-08-16T02:12:16;19.70;99.90
41904;DHT22;27586;51.124;4.182;2022-08-16T02:14:42;19.70;99.90
41904;DHT22;27586;51.124;4.182;2022-08-16T02:17:10;19.70;99.90
41904;DHT22;27586;51.124;4.182;2022-08-16T02:19:39;19.80;99.90
41904;DHT22;27586;51.124;4.182;2022-08-16T02:22:07;19.90;99.90
41904;DHT22;27586;51.124;4.182;2022-08-16T02:24:35;19.90;99.90
41904;DHT22;27586;51.124;4.182;2022-08-16T02:27:01;19.90;99.90
41904;DHT22;27586;51.124;4.182;2022-08-16T02:29:27;19.80;99.90
41904;DHT22;27586;51.124;4.182;2022-08-16T02:31:52;19.80;99.90
41904;DHT22;27586;51.124;4.182;2022-08-16T02:34:19;19.80;99.90
41904;DHT22;27586;51.124;4.182;2022-08-16T02:36:46;19.80;99.90
41904;DHT22;27586;51.124;4.182;2022-08-16T02:39:14;19.80;99.90
41904;DHT22;27586;51.124;4.182;2022-08-16T02:41:42;19.70;99.90
41904;DHT22;27586;51.124;4.182;2022-08-16T02:44:09;19.60;99.90
41904;DHT22;27586;51.124;4.182;2022-08-16T02:46:36;19.70;99.90
41904;DHT22;27586;51.124;4.182;2022-08-16T02:49:03;19.70;99.90
41904;DHT22;27586;51.124;4.182;2022-08-16T02:51:29;19.60;99.90
41904;DHT22;27586;51.124;4.182;2022-08-16T02:53:54;19.70;99.90
41904;DHT22;27586;51.124;4.182;2022-08-16T02:56:21;19.60;99.90
41904;DHT22;27586;51.124;4.182;2022-08-16T02:58:50;19.70;99.90
41904;DHT22;27586;51.124;4.182;2022-08-16T03:01:20;19.70;99.90
41904;DHT22;27586;51.124;4.182;2022-08-16T03:03:47;19.70;99.90
41904;DHT22;27586;51.124;4.182;2022-08-16T03:06:13;19.80;99.90
41904;DHT22;27586;51.124;4.182;2022-08-16T03:08:41;19.70;99.90
41904;DHT22;27586;51.124;4.182;2022-08-16T03:11:07;19.80;99.90
41904;DHT22;27586;51.124;4.182;2022-08-16T03:13:33;19.60;99.90
41904;DHT22;27586;51.124;4.182;2022-08-16T03:15:59;19.60;99.90
41904;DHT22;27586;51.124;4.182;2022-08-16T03:18:24;19.50;99.90
41904;DHT22;27586;51.124;4.182;2022-08-16T03:20:50;19.50;99.90
41904;DHT22;27586;51.124;4.182;2022-08-16T03:23:16;19.50;99.90
41904;DHT22;27586;51.124;4.182;2022-08-16T03:25:41;19.50;99.90
41904;DHT22;27586;51.124;4.182;2022-08-16T03:28:07;19.50;99.90
41904;DHT22;27586;51.124;4.182;2022-08-16T03:30:34;19.60;99.90
41904;DHT22;27586;51.124;4.182;2022-08-16T03:33:01;19.50;99.90
41904;DHT22;27586;51.124;4.182;2022-08-16T03:35:29;19.50;99.90
41904;DHT22;27586;51.124;4.182;2022-08-16T03:38:00;19.50;99.90
41904;DHT22;27586;51.124;4.182;2022-08-16T03:40:28;19.40;99.90
41904;DHT22;27586;51.124;4.182;2022-08-16T03:42:54;19.40;99.90
41904;DHT22;27586;51.124;4.182;2022-08-16T03:45:19;19.40;99.90
41904;DHT22;27586;51.124;4.182;2022-08-16T03:47:46;19.30;99.90
41904;DHT22;27586;51.124;4.182;2022-08-16T03:50:13;19.30;99.90
41904;DHT22;27586;51.124;4.182;2022-08-16T03:52:40;19.20;99.90
41904;DHT22;27586;51.124;4.182;2022-08-16T03:55:08;19.30;99.90
41904;DHT22;27586;51.124;4.182;2022-08-16T03:57:34;19.20;99.90
41904;DHT22;27586;51.124;4.182;2022-08-16T03:59:59;19.20;99.90
41904;DHT22;27586;51.124;4.182;2022-08-16T04:02:25;19.20;99.90
41904;DHT22;27586;51.124;4.182;2022-08-16T04:04:51;19.20;99.90
41904;DHT22;27586;51.124;4.182;2022-08-16T04:07:18;19.10;99.90
41904;DHT22;27586;51.124;4.182;2022-08-16T04:09:44;19.10;99.90
41904;DHT22;27586;51.124;4.182;2022-08-16T04:12:10;19.10;99.90
41904;DHT22;27586;51.124;4.182;2022-08-16T04:14:37;19.10;99.90
41904;DHT22;27586;51.124;4.182;2022-08-16T04:17:03;19.00;99.90
41904;DHT22;27586;51.124;4.182;2022-08-16T04:19:29;19.10;99.90
41904;DHT22;27586;51.124;4.182;2022-08-16T04:21:55;19.10;99.90
41904;DHT22;27586;51.124;4.182;2022-08-16T04:24:21;18.90;99.90
41904;DHT22;27586;51.124;4.182;2022-08-16T04:26:46;18.90;99.90
41904;DHT22;27586;51.124;4.182;2022-08-16T04:29:14;18.90;99.90
41904;DHT22;27586;51.124;4.182;2022-08-16T04:31:39;18.90;99.90
41904;DHT22;27586;51.124;4.182;2022-08-16T04:34:05;18.90;99.90
41904;DHT22;27586;51.124;4.182;2022-08-16T04:36:31;18.90;99.90
41904;DHT22;27586;51.124;4.182;2022-08-16T04:38:57;18.80;99.90
41904;DHT22;27586;51.124;4.182;2022-08-16T04:41:23;18.70;99.90
41904;DHT22;27586;51.124;4.182;2022-08-16T04:43:49;18.70;99.90
41904;DHT22;27586;51.124;4.182;2022-08-16T04:46:15;18.70;99.90
41904;DHT22;27586;51.124;4.182;2022-08-16T04:48:42;18.70;99.90
41904;DHT22;27586;51.124;4.182;2022-08-16T04:51:09;18.70;99.90
41904;DHT22;27586;51.124;4.182;2022-08-16T04:53:35;18.80;99.90
41904;DHT22;27586;51.124;4.182;2022-08-16T04:56:01;18.90;99.90
41904;DHT22;27586;51.124;4.182;2022-08-16T04:58:27;19.00;99.90
41904;DHT22;27586;51.124;4.182;2022-08-16T05:00:55;19.00;99.90
41904;DHT22;27586;51.124;4.182;2022-08-16T05:03:22;19.00;99.90
41904;DHT22;27586;51.124;4.182;2022-08-16T05:05:48;19.00;99.90
41904;DHT22;27586;51.124;4.182;2022-08-16T05:08:14;19.10;99.90
41904;DHT22;27586;51.124;4.182;2022-08-16T05:10:39;19.10;99.90
41904;DHT22;27586;51.124;4.182;2022-08-16T05:13:06;19.30;99.90
41904;DHT22;27586;51.124;4.182;2022-08-16T05:15:33;19.40;99.90
41904;DHT22;27586;51.124;4.182;2022-08-16T05:17:59;19.50;99.90
41904;DHT22;27586;51.124;4.182;2022-08-16T05:20:26;19.50;99.90
41904;DHT22;27586;51.124;4.182;2022-08-16T05:22:52;19.60;99.90
41904;DHT22;27586;51.124;4.182;2022-08-16T05:25:18;19.60;99.90
41904;DHT22;27586;51.124;4.182;2022-08-16T05:27:46;19.50;99.90
41904;DHT22;27586;51.124;4.182;2022-08-16T05:30:13;19.50;99.90
41904;DHT22;27586;51.124;4.182;2022-08-16T05:32:40;19.50;99.90
41904;DHT22;27586;51.124;4.182;2022-08-16T05:35:08;19.60;99.90
41904;DHT22;27586;51.124;4.182;2022-08-16T05:37:38;19.60;99.90
41904;DHT22;27586;51.124;4.182;2022-08-16T05:40:05;19.50;99.90
41904;DHT22;27586;51.124;4.182;2022-08-16T05:42:31;19.40;99.90
41904;DHT22;27586;51.124;4.182;2022-08-16T05:44:57;19.50;99.90
41904;DHT22;27586;51.124;4.182;2022-08-16T05:47:22;19.50;99.90
41904;DHT22;27586;51.124;4.182;2022-08-16T05:49:48;19.60;99.90
41904;DHT22;27586;51.124;4.182;2022-08-16T05:52:14;19.80;99.90
41904;DHT22;27586;51.124;4.182;2022-08-16T05:54:43;20.00;99.90
41904;DHT22;27586;51.124;4.182;2022-08-16T05:57:09;20.00;99.90
41904;DHT22;27586;51.124;4.182;2022-08-16T05:59:36;20.20;99.90
41904;DHT22;27586;51.124;4.182;2022-08-16T06:02:03;20.20;99.90
41904;DHT22;27586;51.124;4.182;2022-08-16T06:04:29;20.30;99.90
41904;DHT22;27586;51.124;4.182;2022-08-16T06:06:54;20.30;99.90
41904;DHT22;27586;51.124;4.182;2022-08-16T06:09:20;20.50;99.90
41904;DHT22;27586;51.124;4.182;2022-08-16T06:11:46;20.60;99.90
41904;DHT22;27586;51.124;4.182;2022-08-16T06:14:12;20.60;99.90
41904;DHT22;27586;51.124;4.182;2022-08-16T06:16:38;20.80;99.90
41904;DHT22;27586;51.124;4.182;2022-08-16T06:19:05;20.80;99.90
41904;DHT22;27586;51.124;4.182;2022-08-16T06:21:30;20.90;99.90
41904;DHT22;27586;51.124;4.182;2022-08-16T06:23:56;20.90;99.90
41904;DHT22;27586;51.124;4.182;2022-08-16T06:26:22;21.00;99.90
41904;DHT22;27586;51.124;4.182;2022-08-16T06:28:48;21.10;99.90
41904;DHT22;27586;51.124;4.182;2022-08-16T06:31:14;21.20;99.90
41904;DHT22;27586;51.124;4.182;2022-08-16T06:33:41;21.50;99.90
41904;DHT22;27586;51.124;4.182;2022-08-16T06:36:07;21.60;99.90
41904;DHT22;27586;51.124;4.182;2022-08-16T06:38:34;21.80;99.90
41904;DHT22;27586;51.124;4.182;2022-08-16T06:41:02;21.90;99.90
41904;DHT22;27586;51.124;4.182;2022-08-16T06:43:28;22.00;99.90
41904;DHT22;27586;51.124;4.182;2022-08-16T06:45:54;22.10;99.90
41904;DHT22;27586;51.124;4.182;2022-08-16T06:48:20;22.20;99.90
41904;DHT22;27586;51.124;4.182;2022-08-16T06:50:46;22.20;99.90
41904;DHT22;27586;51.124;4.182;2022-08-16T06:53:16;22.20;99.90
41904;DHT22;27586;51.124;4.182;2022-08-16T06:55:42;22.30;99.90
41904;DHT22;27586;51.124;4.182;2022-08-16T06:58:09;22.70;99.90
41904;DHT22;27586;51.124;4.182;2022-08-16T08:28:43;25.80;96.40
41904;DHT22;27586;51.124;4.182;2022-08-16T08:31:09;26.30;95.70
41904;DHT22;27586;51.124;4.182;2022-08-16T08:33:35;26.70;94.90
41904;DHT22;27586;51.124;4.182;2022-08-16T08:36:04;27.10;94.30
41904;DHT22;27586;51.124;4.182;2022-08-16T08:38:33;27.10;93.90
41904;DHT22;27586;51.124;4.182;2022-08-16T08:41:00;27.40;93.70
41904;DHT22;27586;51.124;4.182;2022-08-16T08:43:26;27.50;93.30
41904;DHT22;27586;51.124;4.182;2022-08-16T08:45:53;27.70;93.10
41904;DHT22;27586;51.124;4.182;2022-08-16T08:48:21;27.50;93.00
41904;DHT22;27586;51.124;4.182;2022-08-16T08:50:47;27.30;92.90
41904;DHT22;27586;51.124;4.182;2022-08-16T08:53:14;26.90;93.40
41904;DHT22;27586;51.124;4.182;2022-08-16T08:55:40;26.90;93.40
41904;DHT22;27586;51.124;4.182;2022-08-16T08:58:07;26.80;93.50
41904;DHT22;27586;51.124;4.182;2022-08-16T09:00:34;26.80;93.30
41904;DHT22;27586;51.124;4.182;2022-08-16T09:03:00;26.90;92.80
41904;DHT22;27586;51.124;4.182;2022-08-16T09:05:25;27.20;93.30
41904;DHT22;27586;51.124;4.182;2022-08-16T09:07:53;27.40;91.80
41904;DHT22;27586;51.124;4.182;2022-08-16T09:10:20;27.50;92.60
41904;DHT22;27586;51.124;4.182;2022-08-16T09:12:46;27.50;91.20
41904;DHT22;27586;51.124;4.182;2022-08-16T09:15:13;27.40;91.30
41904;DHT22;27586;51.124;4.182;2022-08-16T09:17:40;27.50;91.70
41904;DHT22;27586;51.124;4.182;2022-08-16T09:20:08;27.30;91.70
41904;DHT22;27586;51.124;4.182;2022-08-16T09:22:35;27.30;91.80
41904;DHT22;27586;51.124;4.182;2022-08-16T09:25:02;27.40;91.20
41904;DHT22;27586;51.124;4.182;2022-08-16T09:27:27;27.30;90.30
41904;DHT22;27586;51.124;4.182;2022-08-16T09:29:54;27.50;90.80
41904;DHT22;27586;51.124;4.182;2022-08-16T09:32:20;27.50;89.80
41904;DHT22;27586;51.124;4.182;2022-08-16T09:34:45;27.60;90.30
41904;DHT22;27586;51.124;4.182;2022-08-16T09:37:11;27.70;89.50
41904;DHT22;27586;51.124;4.182;2022-08-16T09:39:41;27.80;89.90
41904;DHT22;27586;51.124;4.182;2022-08-16T09:42:06;27.90;89.10
41904;DHT22;27586;51.124;4.182;2022-08-16T09:44:32;27.80;90.10
41904;DHT22;27586;51.124;4.182;2022-08-16T09:46:58;27.80;89.50
41904;DHT22;27586;51.124;4.182;2022-08-16T09:49:24;27.80;89.00
41904;DHT22;27586;51.124;4.182;2022-08-16T09:51:51;27.90;89.10
41904;DHT22;27586;51.124;4.182;2022-08-16T09:54:21;28.10;88.50
41904;DHT22;27586;51.124;4.182;2022-08-16T09:56:48;28.30;88.80
41904;DHT22;27586;51.124;4.182;2022-08-16T09:59:14;28.50;89.30
41904;DHT22;27586;51.124;4.182;2022-08-16T10:01:40;28.70;89.00
41904;DHT22;27586;51.124;4.182;2022-08-16T10:04:10;29.10;88.30
41904;DHT22;27586;51.124;4.182;2022-08-16T10:06:36;29.00;87.50
41904;DHT22;27586;51.124;4.182;2022-08-16T10:09:05;29.00;85.80
41904;DHT22;27586;51.124;4.182;2022-08-16T10:11:31;28.90;86.20
41904;DHT22;27586;51.124;4.182;2022-08-16T10:14:16;28.90;85.50
41904;DHT22;27586;51.124;4.182;2022-08-16T10:16:41;28.70;86.30
41904;DHT22;27586;51.124;4.182;2022-08-16T10:19:09;28.60;86.60
41904;DHT22;27586;51.124;4.182;2022-08-16T10:21:34;28.40;86.20
41904;DHT22;27586;51.124;4.182;2022-08-16T10:24:00;28.30;85.60
41904;DHT22;27586;51.124;4.182;2022-08-16T10:26:26;28.60;85.80
41904;DHT22;27586;51.124;4.182;2022-08-16T10:28:53;28.70;84.40
41904;DHT22;27586;51.124;4.182;2022-08-16T10:31:19;28.90;84.50
41904;DHT22;27586;51.124;4.182;2022-08-16T10:33:45;28.90;83.80
41904;DHT22;27586;51.124;4.182;2022-08-16T10:36:11;28.80;83.90
41904;DHT22;27586;51.124;4.182;2022-08-16T10:38:39;28.50;83.50
41904;DHT22;27586;51.124;4.182;2022-08-16T10:41:06;28.40;83.60
41904;DHT22;27586;51.124;4.182;2022-08-16T10:43:34;28.60;83.70
41904;DHT22;27586;51.124;4.182;2022-08-16T10:46:00;28.70;83.20
41904;DHT22;27586;51.124;4.182;2022-08-16T10:48:29;28.80;82.00
41904;DHT22;27586;51.124;4.182;2022-08-16T10:50:56;28.70;81.10
41904;DHT22;27586;51.124;4.182;2022-08-16T10:53:28;28.70;82.60
41904;DHT22;27586;51.124;4.182;2022-08-16T10:55:54;28.60;83.70
41904;DHT22;27586;51.124;4.182;2022-08-16T10:58:20;28.40;83.20
41904;DHT22;27586;51.124;4.182;2022-08-16T11:00:46;28.30;82.40
41904;DHT22;27586;51.124;4.182;2022-08-16T11:03:13;28.30;82.90
41904;DHT22;27586;51.124;4.182;2022-08-16T11:05:39;28.20;84.00
41904;DHT22;27586;51.124;4.182;2022-08-16T11:08:07;28.20;83.10
41904;DHT22;27586;51.124;4.182;2022-08-16T11:10:42;28.20;83.90
41904;DHT22;27586;51.124;4.182;2022-08-16T11:13:10;28.20;83.60
41904;DHT22;27586;51.124;4.182;2022-08-16T11:15:37;28.00;82.90
41904;DHT22;27586;51.124;4.182;2022-08-16T11:18:04;27.90;83.50
41904;DHT22;27586;51.124;4.182;2022-08-16T11:20:30;27.90;83.70
41904;DHT22;27586;51.124;4.182;2022-08-16T11:22:55;27.70;83.40
41904;DHT22;27586;51.124;4.182;2022-08-16T11:25:25;27.70;83.70
41904;DHT22;27586;51.124;4.182;2022-08-16T11:27:53;27.80;82.20
41904;DHT22;27586;51.124;4.182;2022-08-16T11:30:19;27.90;82.80
41904;DHT22;27586;51.124;4.182;2022-08-16T11:32:45;27.90;83.20
41904;DHT22;27586;51.124;4.182;2022-08-16T11:35:18;28.10;83.50
41904;DHT22;27586;51.124;4.182;2022-08-16T11:37:54;28.20;81.90
41904;DHT22;27586;51.124;4.182;2022-08-16T11:40:22;28.50;83.60
41904;DHT22;27586;51.124;4.182;2022-08-16T11:42:48;28.70;83.50
41904;DHT22;27586;51.124;4.182;2022-08-16T11:45:15;28.90;83.00
41904;DHT22;27586;51.124;4.182;2022-08-16T11:47:41;29.10;81.40
41904;DHT22;27586;51.124;4.182;2022-08-16T11:50:07;29.50;80.50
41904;DHT22;27586;51.124;4.182;2022-08-16T11:52:35;29.60;80.70
41904;DHT22;27586;51.124;4.182;2022-08-16T11:55:02;29.80;80.60
41904;DHT22;27586;51.124;4.182;2022-08-16T11:57:28;30.10;81.60
41904;DHT22;27586;51.124;4.182;2022-08-16T11:59:54;30.10;80.80
41904;DHT22;27586;51.124;4.182;2022-08-16T12:02:19;30.10;79.70
41904;DHT22;27586;51.124;4.182;2022-08-16T12:04:46;29.90;79.10
41904;DHT22;27586;51.124;4.182;2022-08-16T12:07:12;29.70;79.70
41904;DHT22;27586;51.124;4.182;2022-08-16T12:09:38;29.60;80.20
41904;DHT22;27586;51.124;4.182;2022-08-16T12:12:04;29.50;81.30
41904;DHT22;27586;51.124;4.182;2022-08-16T12:14:32;29.50;81.10
41904;DHT22;27586;51.124;4.182;2022-08-16T12:16:59;29.50;82.00
41904;DHT22;27586;51.124;4.182;2022-08-16T12:19:27;29.60;81.30
41904;DHT22;27586;51.124;4.182;2022-08-16T12:21:53;30.00;81.40
41904;DHT22;27586;51.124;4.182;2022-08-16T12:24:19;30.00;79.00
41904;DHT22;27586;51.124;4.182;2022-08-16T12:26:46;30.10;80.40
41904;DHT22;27586;51.124;4.182;2022-08-16T12:29:13;30.40;78.90
41904;DHT22;27586;51.124;4.182;2022-08-16T12:31:40;30.30;79.10
41904;DHT22;27586;51.124;4.182;2022-08-16T12:34:05;30.10;80.30
41904;DHT22;27586;51.124;4.182;2022-08-16T12:36:32;30.10;80.20
41904;DHT22;27586;51.124;4.182;2022-08-16T12:39:01;30.10;79.80
41904;DHT22;27586;51.124;4.182;2022-08-16T12:41:27;30.00;80.10
41904;DHT22;27586;51.124;4.182;2022-08-16T12:43:54;29.90;79.60
41904;DHT22;27586;51.124;4.182;2022-08-16T12:46:19;29.90;80.30
41904;DHT22;27586;51.124;4.182;2022-08-16T12:48:45;30.00;79.90
41904;DHT22;27586;51.124;4.182;2022-08-16T12:51:43;29.70;79.40
41904;DHT22;27586;51.124;4.182;2022-08-16T12:54:10;29.60;78.80
41904;DHT22;27586;51.124;4.182;2022-08-16T12:56:37;29.60;79.00
41904;DHT22;27586;51.124;4.182;2022-08-16T12:59:08;29.60;80.00
41904;DHT22;27586;51.124;4.182;2022-08-16T13:01:35;29.90;79.70
41904;DHT22;27586;51.124;4.182;2022-08-16T13:04:03;30.00;79.00
41904;DHT22;27586;51.124;4.182;2022-08-16T13:06:32;30.30;77.80
41904;DHT22;27586;51.124;4.182;2022-08-16T13:08:58;30.20;76.60
41904;DHT22;27586;51.124;4.182;2022-08-16T13:11:42;30.20;77.50
41904;DHT22;27586;51.124;4.182;2022-08-16T13:14:14;30.20;76.10
41904;DHT22;27586;51.124;4.182;2022-08-16T13:16:40;30.10;74.80
41904;DHT22;27586;51.124;4.182;2022-08-16T13:19:06;30.30;76.30
41904;DHT22;27586;51.124;4.182;2022-08-16T13:21:32;30.20;75.20
41904;DHT22;27586;51.124;4.182;2022-08-16T13:23:58;30.30;76.20
41904;DHT22;27586;51.124;4.182;2022-08-16T13:26:24;30.10;73.70
41904;DHT22;27586;51.124;4.182;2022-08-16T13:28:50;30.20;74.70
41904;DHT22;27586;51.124;4.182;2022-08-16T13:31:17;30.10;74.10
41904;DHT22;27586;51.124;4.182;2022-08-16T13:33:42;30.10;74.00
41904;DHT22;27586;51.124;4.182;2022-08-16T13:36:10;30.10;73.40
41904;DHT22;27586;51.124;4.182;2022-08-16T13:38:37;29.90;73.90
41904;DHT22;27586;51.124;4.182;2022-08-16T13:41:04;29.70;73.80
41904;DHT22;27586;51.124;4.182;2022-08-16T13:43:31;29.70;74.10
41904;DHT22;27586;51.124;4.182;2022-08-16T13:45:57;29.60;73.80
41904;DHT22;27586;51.124;4.182;2022-08-16T13:48:27;29.70;74.40
41904;DHT22;27586;51.124;4.182;2022-08-16T13:50:54;29.70;74.10
41904;DHT22;27586;51.124;4.182;2022-08-16T13:53:20;29.60;73.10
41904;DHT22;27586;51.124;4.182;2022-08-16T13:55:46;29.50;74.50
41904;DHT22;27586;51.124;4.182;2022-08-16T13:58:12;29.50;75.70
41904;DHT22;27586;51.124;4.182;2022-08-16T14:00:37;29.60;75.30
41904;DHT22;27586;51.124;4.182;2022-08-16T14:03:03;29.50;74.20
41904;DHT22;27586;51.124;4.182;2022-08-16T14:05:29;29.50;74.90
41904;DHT22;27586;51.124;4.182;2022-08-16T14:07:54;29.40;75.40
41904;DHT22;27586;51.124;4.182;2022-08-16T14:10:20;29.50;75.60
41904;DHT22;27586;51.124;4.182;2022-08-16T14:12:46;29.40;74.50
41904;DHT22;27586;51.124;4.182;2022-08-16T14:15:13;29.40;76.00
41904;DHT22;27586;51.124;4.182;2022-08-16T14:17:40;29.40;76.10
41904;DHT22;27586;51.124;4.182;2022-08-16T14:20:07;29.40;75.90
41904;DHT22;27586;51.124;4.182;2022-08-16T14:22:35;29.50;75.20
41904;DHT22;27586;51.124;4.182;2022-08-16T14:25:05;29.60;75.00
41904;DHT22;27586;51.124;4.182;2022-08-16T14:27:31;29.70;75.60
41904;DHT22;27586;51.124;4.182;2022-08-16T14:29:58;29.70;75.70
41904;DHT22;27586;51.124;4.182;2022-08-16T14:32:26;29.70;76.20
41904;DHT22;27586;51.124;4.182;2022-08-16T14:34:53;29.60;75.90
41904;DHT22;27586;51.124;4.182;2022-08-16T14:37:20;29.70;76.20
41904;DHT22;27586;51.124;4.182;2022-08-16T14:39:45;29.70;75.70
41904;DHT22;27586;51.124;4.182;2022-08-16T14:42:13;29.70;75.60
41904;DHT22;27586;51.124;4.182;2022-08-16T14:44:40;29.50;75.90
41904;DHT22;27586;51.124;4.182;2022-08-16T14:47:06;29.30;76.40
41904;DHT22;27586;51.124;4.182;2022-08-16T14:49:33;29.20;77.80
41904;DHT22;27586;51.124;4.182;2022-08-16T14:52:07;29.10;75.40
41904;DHT22;27586;51.124;4.182;2022-08-16T14:54:33;29.00;76.10
41904;DHT22;27586;51.124;4.182;2022-08-16T14:56:59;28.90;77.50
41904;DHT22;27586;51.124;4.182;2022-08-16T14:59:25;29.00;77.50
41904;DHT22;27586;51.124;4.182;2022-08-16T15:01:52;29.00;77.20
41904;DHT22;27586;51.124;4.182;2022-08-16T15:04:18;28.90;76.60
41904;DHT22;27586;51.124;4.182;2022-08-16T15:06:45;28.70;76.90
41904;DHT22;27586;51.124;4.182;2022-08-16T15:09:10;28.40;77.40
41904;DHT22;27586;51.124;4.182;2022-08-16T15:11:37;28.50;78.00
41904;DHT22;27586;51.124;4.182;2022-08-16T15:14:03;28.60;78.70
41904;DHT22;27586;51.124;4.182;2022-08-16T15:16:28;28.70;79.30
41904;DHT22;27586;51.124;4.182;2022-08-16T15:18:54;28.60;79.40
41904;DHT22;27586;51.124;4.182;2022-08-16T15:21:23;28.80;78.40
41904;DHT22;27586;51.124;4.182;2022-08-16T15:23:49;28.80;78.90
41904;DHT22;27586;51.124;4.182;2022-08-16T15:26:15;28.70;78.80
41904;DHT22;27586;51.124;4.182;2022-08-16T15:28:40;28.60;80.00
41904;DHT22;27586;51.124;4.182;2022-08-16T15:31:07;28.60;79.60
41904;DHT22;27586;51.124;4.182;2022-08-16T15:33:40;28.80;79.90
41904;DHT22;27586;51.124;4.182;2022-08-16T15:36:06;28.80;79.40
41904;DHT22;27586;51.124;4.182;2022-08-16T15:38:33;28.80;79.80
41904;DHT22;27586;51.124;4.182;2022-08-16T15:40:59;28.80;79.70
41904;DHT22;27586;51.124;4.182;2022-08-16T15:43:25;28.70;79.10
41904;DHT22;27586;51.124;4.182;2022-08-16T15:45:51;28.70;79.30
41904;DHT22;27586;51.124;4.182;2022-08-16T15:48:35;28.60;78.60
41904;DHT22;27586;51.124;4.182;2022-08-16T15:51:04;28.60;79.80
41904;DHT22;27586;51.124;4.182;2022-08-16T15:53:30;28.60;79.60
41904;DHT22;27586;51.124;4.182;2022-08-16T15:55:57;28.60;80.00
41904;DHT22;27586;51.124;4.182;2022-08-16T15:58:25;28.50;80.10
41904;DHT22;27586;51.124;4.182;2022-08-16T16:00:52;28.40;79.90
41904;DHT22;27586;51.124;4.182;2022-08-16T16:03:19;28.40;80.90
41904;DHT22;27586;51.124;4.182;2022-08-16T16:05:50;28.30;80.80
41904;DHT22;27586;51.124;4.182;2022-08-16T16:08:18;28.30;81.10
41904;DHT22;27586;51.124;4.182;2022-08-16T16:10:47;28.20;82.70
41904;DHT22;27586;51.124;4.182;2022-08-16T16:13:14;28.10;81.00
41904;DHT22;27586;51.124;4.182;2022-08-16T16:15:45;28.10;83.00
41904;DHT22;27586;51.124;4.182;2022-08-16T16:18:12;28.00;82.50
41904;DHT22;27586;51.124;4.182;2022-08-16T16:20:41;28.00;81.50
41904;DHT22;27586;51.124;4.182;2022-08-16T16:23:09;27.90;83.50
41904;DHT22;27586;51.124;4.182;2022-08-16T16:25:36;27.90;82.20
41904;DHT22;27586;51.124;4.182;2022-08-16T16:28:02;27.90;83.70
41904;DHT22;27586;51.124;4.182;2022-08-16T16:30:29;27.80;84.10
41904;DHT22;27586;51.124;4.182;2022-08-16T16:32:56;27.80;83.70
41904;DHT22;27586;51.124;4.182;2022-08-16T16:35:24;27.80;82.90
41904;DHT22;27586;51.124;4.182;2022-08-16T16:37:50;27.80;84.20
41904;DHT22;27586;51.124;4.182;2022-08-16T16:40:15;27.80;84.50
41904;DHT22;27586;51.124;4.182;2022-08-16T16:42:41;27.80;85.10
41904;DHT22;27586;51.124;4.182;2022-08-16T16:45:09;27.80;85.70
41904;DHT22;27586;51.124;4.182;2022-08-16T16:47:35;27.80;86.00
41904;DHT22;27586;51.124;4.182;2022-08-16T16:50:02;27.80;85.80
41904;DHT22;27586;51.124;4.182;2022-08-16T16:52:30;27.70;85.40
41904;DHT22;27586;51.124;4.182;2022-08-16T16:54:56;27.70;86.30
41904;DHT22;27586;51.124;4.182;2022-08-16T16:57:22;27.70;86.50
41904;DHT22;27586;51.124;4.182;2022-08-16T17:00:07;27.70;84.80
41904;DHT22;27586;51.124;4.182;2022-08-16T17:02:35;27.70;85.30
41904;DHT22;27586;51.124;4.182;2022-08-16T17:05:02;27.70;85.80